Time;durP1;ratioP1;P1;durP2;ratioP2;P2;SDS_P1;SDS_P2;PMS_P1;PMS_P2;Temp;Humidity;BMP_temperature;BMP_pressure;BME280_temperature;BME280_humidity;BME280_pressure;Samples;Min_cycle;Max_cycle;Signal;HPM_P1;HPM_P2
2023/06/27 00:02:43;;;;;;;;;;;;;;;24.75;49.65;100006.56;41795106;28;19933;-79
2023/06/27 00:22:49;;;;;;;;;;;;;;;24.63;50.41;100013.84;41791753;28;19929;-79
2023/06/27 00:42:56;;;;;;;;;;;;;;;24.43;51.12;100023.75;41752526;28;20017;-79
2023/06/27 01:02:56;;;;;;;;;;;;;;;24.30;51.40;100022.31;41747274;28;20004;-78
2023/06/27 01:23:14;;;;;;;;;;;;;;;24.20;51.14;100005.63;41730718;28;20326;-77
2023/06/27 01:43:16;;;;;;;;;;;;;;;24.11;50.36;99977.44;41728623;28;19925;-78
2023/06/27 02:03:16;;;;;;;;;;;;;;;23.99;50.24;99955.66;41747854;28;20433;-77
2023/06/27 02:23:17;;;;;;;;;;;;;;;23.88;50.75;99972.50;41710113;28;19968;-77
2023/06/27 02:43:17;;;;;;;;;;;;;;;23.72;51.21;99938.78;41697939;28;19933;-77
2023/06/27 03:03:17;;;;;;;;;;;;;;;23.62;51.15;99925.59;41726127;28;20416;-77
2023/06/27 03:23:18;;;;;;;;;;;;;;;23.55;51.22;99947.50;41730274;28;19933;-78
2023/06/27 03:43:18;;;;;;;;;;;;;;;23.46;50.08;99946.53;41730987;28;19944;-75
2023/06/27 04:03:18;;;;;;;;;;;;;;;23.49;49.39;99928.56;41724093;28;19960;-77
2023/06/27 04:23:19;;;;;;;;;;;;;;;23.56;49.52;99943.84;41757526;28;19960;-77
2023/06/27 04:43:19;;;;;;;;;;;;;;;23.12;51.77;99983.97;41731206;28;19951;-78
2023/06/27 05:03:20;;;;;;;;;;;;;;;22.18;55.31;99945.72;41703050;28;20395;-77
2023/06/27 05:23:21;;;;;;;;;;;;;;;22.76;55.44;99952.06;41717112;28;20024;-76
2023/06/27 05:43:21;;;;;;;;;;;;;;;23.05;55.57;99975.81;41730457;28;20014;-77
2023/06/27 06:03:22;;;;;;;;;;;;;;;23.41;55.21;99976.03;41711303;28;21883;-74
2023/06/27 06:23:22;;;;;;;;;;;;;;;23.64;54.00;99957.16;41738773;28;19995;-74
2023/06/27 06:43:26;;;;;;;;;;;;;;;23.71;52.55;99983.88;41751263;28;20019;-75
2023/06/27 07:03:26;;;;;;;;;;;;;;;23.75;52.80;99993.97;41748043;28;20424;-76
2023/06/27 07:23:27;;;;;;;;;;;;;;;23.80;53.31;100031.41;41741060;28;19929;-75
2023/06/27 07:43:30;;;;;;;;;;;;;;;23.92;53.57;100023.28;41701216;28;20313;-74
2023/06/27 08:03:30;;;;;;;;;;;;;;;24.16;54.30;100037.81;41722704;28;19933;-76
2023/06/27 08:23:31;;;;;;;;;;;;;;;24.28;54.07;100050.72;41746285;28;19933;-77
2023/06/27 08:43:31;;;;;;;;;;;;;;;24.37;53.75;100042.88;41717532;28;20044;-77
2023/06/27 09:03:32;;;;;;;;;;;;;;;24.30;53.63;100047.91;41740869;28;19925;-75
2023/06/27 09:23:33;;;;;;;;;;;;;;;24.35;54.51;100071.28;41709018;28;19932;-75
2023/06/27 09:43:35;;;;;;;;;;;;;;;24.44;55.09;100073.06;41710474;28;19928;-75
2023/06/27 10:03:36;;;;;;;;;;;;;;;24.71;54.67;100072.22;41736068;28;22108;-78
2023/06/27 10:23:39;;;;;;;;;;;;;;;24.78;53.00;100081.22;41754943;28;19983;-79
2023/06/27 10:43:48;;;;;;;;;;;;;;;24.82;52.35;100094.19;41717603;28;19976;-79
2023/06/27 11:03:52;;;;;;;;;;;;;;;24.82;51.44;100113.53;41730582;28;19978;-78
2023/06/27 11:23:57;;;;;;;;;;;;;;;24.80;50.19;100149.91;41746466;28;19924;-79
2023/06/27 11:43:57;;;;;;;;;;;;;;;24.69;49.64;100158.91;41780846;28;19929;-80
2023/06/27 12:04:00;;;;;;;;;;;;;;;24.68;49.46;100185.53;41818475;28;20312;-78
2023/06/27 12:24:01;;;;;;;;;;;;;;;24.61;50.38;100164.91;41805902;28;19947;-77
2023/06/27 12:44:01;;;;;;;;;;;;;;;24.59;51.42;100127.16;41805846;28;19978;-77
2023/06/27 13:04:02;;;;;;;;;;;;;;;24.49;50.64;100152.03;41803509;28;20117;-78
2023/06/27 13:24:02;;;;;;;;;;;;;;;24.39;50.48;100130.88;41814196;28;19925;-78
2023/06/27 13:44:02;;;;;;;;;;;;;;;24.35;49.31;100143.59;41784209;28;19925;-79
2023/06/27 14:04:03;;;;;;;;;;;;;;;24.32;47.56;100104.19;41790785;28;19936;-78
2023/06/27 14:24:04;;;;;;;;;;;;;;;24.28;45.03;100142.50;41778732;28;19932;-78
2023/06/27 14:44:05;;;;;;;;;;;;;;;24.30;44.71;100161.69;41779657;28;19929;-79
2023/06/27 15:04:07;;;;;;;;;;;;;;;24.25;44.26;100137.47;41779599;28;19933;-78
2023/06/27 15:24:07;;;;;;;;;;;;;;;24.23;44.40;100123.56;41780824;28;19925;-79
2023/06/27 15:44:07;;;;;;;;;;;;;;;24.11;44.73;100115.00;41830555;28;20432;-78
2023/06/27 16:04:07;;;;;;;;;;;;;;;24.06;44.98;100101.34;41782767;28;19929;-78
2023/06/27 16:24:14;;;;;;;;;;;;;;;24.03;45.10;100130.75;41752064;28;20314;-77
2023/06/27 16:44:15;;;;;;;;;;;;;;;24.03;45.09;100150.06;41747973;28;19928;-77
2023/06/27 17:04:15;;;;;;;;;;;;;;;23.83;40.90;100165.13;41711298;28;19979;-76
2023/06/27 17:24:22;;;;;;;;;;;;;;;24.01;39.49;100157.34;41727148;28;20019;-76
2023/06/27 17:44:22;;;;;;;;;;;;;;;24.07;39.37;100170.00;41721809;28;20485;-77
2023/06/27 18:04:23;;;;;;;;;;;;;;;24.03;39.75;100163.31;41702431;28;19928;-78
2023/06/27 18:24:25;;;;;;;;;;;;;;;24.04;39.80;100164.16;41685450;28;19948;-79
2023/06/27 18:44:28;;;;;;;;;;;;;;;23.98;39.44;100169.00;41707021;28;19929;-77
2023/06/27 19:04:29;;;;;;;;;;;;;;;24.01;39.69;100193.53;41703954;28;19932;-79
2023/06/27 19:24:30;;;;;;;;;;;;;;;23.73;39.60;100204.81;41706450;28;20274;-77
2023/06/27 19:44:30;;;;;;;;;;;;;;;23.59;39.51;100200.75;41730008;28;20365;-80
2023/06/27 20:04:32;;;;;;;;;;;;;;;23.52;39.30;100212.84;41709111;28;19924;-79
2023/06/27 20:24:33;;;;;;;;;;;;;;;23.36;39.38;100221.31;41716626;28;20049;-80
2023/06/27 20:44:34;;;;;;;;;;;;;;;23.41;39.86;100223.56;41739460;28;20007;-80
2023/06/27 21:04:35;;;;;;;;;;;;;;;23.28;40.44;100235.22;41735662;28;20022;-78
2023/06/27 21:24:36;;;;;;;;;;;;;;;23.23;40.65;100220.75;41700585;28;20194;-79
2023/06/27 21:44:36;;;;;;;;;;;;;;;23.17;40.41;100212.41;41709762;28;20030;-77
2023/06/27 22:04:36;;;;;;;;;;;;;;;22.98;40.13;100210.53;41709824;28;19932;-79
2023/06/27 22:24:37;;;;;;;;;;;;;;;22.89;40.42;100229.81;41711193;28;19964;-79
2023/06/27 22:44:38;;;;;;;;;;;;;;;22.84;39.95;100224.13;41709540;28;19929;-76
2023/06/27 23:04:42;;;;;;;;;;;;;;;22.76;40.55;100216.03;41702650;28;20037;-78
2023/06/27 23:24:44;;;;;;;;;;;;;;;22.61;40.73;100211.09;41698815;28;19929;-78
2023/06/27 23:44:45;;;;;;;;;;;;;;;22.52;40.65;100196.06;41702071;28;19925;-79
